• Join FlightAware (Why Join?)
  • Login
  • US Flag 
08:07PM EDT


 

Airport Tracker/Info


-or-


 

Live Flight TrackerFlight Track Log ✈ TAM3420 ✈ 18-Sep-2013 ✈ SBGL / GIG - SBBE / BEL

Flight Track Log - Related Links

Times and Time Zones

All times are in EDT time to prevent confusion due to time zone crossing. See the TAM3420 flight status page for this flight to view local times or setup timezone preferences in your user account.

Time Position Orientation Groundspeed Altitude Reporting Facility
EDT Latitude Longitude Course Direction KTS MPH feet Rate Location/Type
09:10AM -22.7910 -43.3000 275° West 209 241 1,100  Level FlightAware
09:10AM -22.7930 -43.3100 258° West 216 249 1,200 1,920 Climbing FlightAware
09:10AM -22.8060 -43.3280 232° Southwest 217 250 2,300 2,160 Climbing FlightAware
09:11AM -22.8300 -43.3450 213° Southwest 231 266 3,300 2,340 Climbing FlightAware
09:11AM -22.8540 -43.3480 187° South 233 268 4,200 4,200 Climbing FlightAware
09:11AM -22.8650 -43.3500 190° South 243 280 4,500 2,160 Climbing FlightAware
09:12AM -22.8910 -43.3540 188° South 250 288 5,400 2,220 Climbing FlightAware
09:12AM -22.9060 -43.3570 190° South 252 290 6,000 2,400 Climbing FlightAware
09:12AM -22.9420 -43.3640 190° South 264 304 6,900 1,440 Climbing FlightAware
09:13AM -22.9670 -43.3690 190° South 287 330 7,000 1,200 Climbing FlightAware
09:13AM -23.0010 -43.3750 189° South 297 342 7,800 1,860 Climbing FlightAware
09:13AM -23.0270 -43.3800 190° South 306 352 8,400 2,160 Climbing FlightAware
09:14AM -23.0680 -43.3690 166° South 315 362 9,600 2,400 Climbing FlightAware
09:14AM -23.0820 -43.3510 130° Southeast 316 364 10,200 1,680 Climbing FlightAware
09:14AM -23.0900 -43.3170 104° East 331 381 10,600 900 Climbing FlightAware
09:15AM -23.0820 -43.2860 74° East 343 395 10,800 660 Climbing FlightAware
09:15AM -23.0680 -43.2670 51° Northeast 354 407 11,000 1,200 Climbing FlightAware
09:16AM -23.0300 -43.2310 41° Northeast 367 422 11,700 1,620 Climbing FlightAware
09:16AM -23.0130 -43.2080 51° Northeast 375 432 12,200 2,160 Climbing FlightAware
09:16AM -22.9980 -43.1920 44° Northeast 372 428 12,600 1,800 Climbing FlightAware
09:16AM -22.9830 -43.1820 32° Northeast 371 427 12,900 1,200 Climbing FlightAware
09:16AM -22.9680 -43.1760 20° North 367 422 13,000 300 Climbing FlightAware
09:16AM -22.9540 -43.1730 11° North 364 419 13,000 840 Level FlightAware
09:17AM -22.9170 -43.1820 347° North 356 410 13,500 1,560 Climbing FlightAware
09:17AM -22.8540 -43.2080 339° North 362 417 14,700 1,800 Climbing FlightAware
09:18AM -22.7950 -43.2300 341° North 370 426 15,700 1,620 Climbing FlightAware
09:19AM -22.7430 -43.2450 345° North 375 432 16,600 1,620 Climbing FlightAware
09:19AM -22.6820 -43.2620 346° North 381 438 17,600 1,560 Climbing FlightAware
09:20AM -22.6200 -43.2800 345° North 386 444 18,500 1,560 Climbing FlightAware
09:20AM -22.5550 -43.2990 345° North 391 450 19,500 1,800 Climbing FlightAware
09:21AM -22.5000 -43.3150 345° North 384 442 20,600 1,560 Climbing FlightAware
09:22AM -22.4370 -43.3330 345° North 391 450 21,300 1,140 Climbing FlightAware
09:22AM -22.3740 -43.3510 345° North 397 457 22,000 1,080 Climbing FlightAware
09:23AM -22.3090 -43.3700 345° North 405 466 22,600 1,140 Climbing FlightAware
09:23AM -22.2520 -43.3870 345° North 407 468 23,300 1,200 Climbing FlightAware
09:24AM -22.1930 -43.4040 345° North 411 473 23,900 900 Climbing FlightAware
09:24AM -22.1320 -43.4210 346° North 417 480 24,400 840 Climbing FlightAware
09:25AM -22.0700 -43.4390 345° North 421 484 24,900 1,140 Climbing FlightAware
09:26AM -21.9830 -43.4640 345° North 423 487 25,900 1,140 Climbing FlightAware
09:26AM -21.9150 -43.4840 345° North 425 489 26,500 900 Climbing FlightAware
09:27AM -21.8490 -43.5010 347° North 431 496 27,000 900 Climbing FlightAware
09:27AM -21.7900 -43.5170 346° North 431 496 27,500 1,200 Climbing FlightAware
09:28AM -21.7210 -43.5350 346° North 428 493 28,400 1,920 Climbing FlightAware
09:29AM -21.6520 -43.5540 346° North 402 463 29,900 1,560 Climbing FlightAware
09:29AM -21.5990 -43.5680 346° North 411 473 30,100 660 Climbing FlightAware
09:30AM -21.5230 -43.5880 346° North 413 475 30,700 720 Climbing FlightAware
09:30AM -21.4610 -43.6040 346° North 420 483 31,000 720 Climbing FlightAware
09:31AM -21.3860 -43.6220 347° North 420 483 31,600 900 Climbing FlightAware
09:32AM -21.3230 -43.6380 347° North 420 483 32,100 960 Climbing FlightAware
09:32AM -21.2560 -43.6550 347° North 415 478 32,700 1,020 Climbing FlightAware
09:33AM -21.1990 -43.6690 347° North 413 475 33,200 720 Climbing FlightAware
09:33AM -21.1330 -43.6860 346° North 413 475 33,600 720 Climbing FlightAware
09:34AM -21.0590 -43.7050 347° North 411 473 34,200 840 Climbing FlightAware
09:34AM -20.9950 -43.7210 347° North 409 471 34,600 420 Climbing FlightAware
09:35AM -20.9350 -43.7360 347° North 415 478 34,700 180 Climbing FlightAware
09:36AM -20.8750 -43.7510 347° North 421 484 34,800 180 Climbing FlightAware
09:36AM -20.7790 -43.7750 347° North 425 489 35,000 120 Climbing FlightAware
09:37AM -20.7270 -43.7880 347° North 424 488 35,000  Level FlightAware
09:38AM -20.6480 -43.8080 347° North 423 487 35,000  Level FlightAware
09:38AM -20.5520 -43.8320 347° North 422 486 35,000  Level FlightAware
09:39AM -20.4910 -43.8460 348° North 423 487 35,000  Level FlightAware
09:39AM -20.4310 -43.8610 347° North 423 487 35,000  Level FlightAware
09:40AM -20.3470 -43.8810 347° North 424 488 35,000  Level FlightAware
09:41AM -20.2780 -43.8970 348° North 424 488 35,000  Level FlightAware
09:41AM -20.2090 -43.9140 347° North 425 489 35,000  Level FlightAware
09:42AM -20.1460 -43.9290 347° North 426 490 35,000  Level FlightAware
09:42AM -20.0720 -43.9470 347° North 426 490 35,000  Level FlightAware
09:43AM -20.0070 -43.9630 347° North 426 490 35,000  Level FlightAware
09:44AM -19.9370 -43.9790 348° North 427 491 35,000  Level FlightAware
09:44AM -19.8670 -43.9970 346° North 427 491 35,000  Level FlightAware
09:45AM -19.8050 -44.0130 346° North 428 493 35,000  Level FlightAware
09:45AM -19.7320 -44.0320 346° North 426 490 35,000  Level FlightAware
09:46AM -19.6680 -44.0480 347° North 426 490 35,000  Level FlightAware
09:47AM -19.5980 -44.0660 346° North 427 491 35,000  Level FlightAware
09:47AM -19.5320 -44.0820 347° North 427 491 35,000  Level FlightAware
09:48AM -19.4670 -44.0990 346° North 428 493 35,000  Level FlightAware
09:48AM -19.4010 -44.1160 346° North 429 494 35,000  Level FlightAware
09:49AM -19.3340 -44.1330 347° North 429 494 35,000  Level FlightAware
09:49AM -19.2630 -44.1500 347° North 430 495 35,000  Level FlightAware
09:50AM -19.1970 -44.1670 346° North 429 494 35,000  Level FlightAware
09:51AM -19.1320 -44.1830 347° North 429 494 35,000  Level FlightAware
09:51AM -19.0630 -44.2010 346° North 428 493 35,000  Level FlightAware
09:52AM -18.9920 -44.2190 347° North 427 491 35,000  Level FlightAware
09:52AM -18.9150 -44.2380 347° North 429 494 35,000  Level FlightAware
09:53AM -18.8530 -44.2530 347° North 430 495 35,000  Level FlightAware
09:54AM -18.7790 -44.2720 346° North 432 497 35,000  Level FlightAware
09:54AM -18.7110 -44.2890 347° North 432 497 35,000  Level FlightAware
09:55AM -18.6420 -44.3060 347° North 433 498 35,000  Level FlightAware
09:55AM -18.5730 -44.3240 346° North 433 498 35,000  Level FlightAware
09:56AM -18.4960 -44.3430 347° North 433 498 35,000  Level FlightAware
09:57AM -18.4370 -44.3570 347° North 433 498 35,000  Level FlightAware
09:57AM -18.3680 -44.3750 346° North 433 498 35,000  Level FlightAware
09:58AM -18.2990 -44.3920 347° North 434 499 35,000  Level FlightAware
09:58AM -18.2300 -44.4090 347° North 434 499 35,000  Level FlightAware
09:59AM -18.1630 -44.4260 346° North 434 499 35,000  Level FlightAware
09:59AM -18.0930 -44.4430 347° North 435 501 35,000  Level FlightAware
10:00AM -18.0150 -44.4620 347° North 426 490 35,000  Level FlightAware
10:01AM -17.9580 -44.4770 346° North 429 494 35,000  Level FlightAware
10:01AM -17.8810 -44.4960 347° North 426 490 35,000  Level FlightAware
10:02AM -17.8120 -44.5130 347° North 430 495 35,000  Level FlightAware
10:02AM -17.7550 -44.5270 347° North 430 495 35,000 60 Level FlightAware
10:03AM -17.6760 -44.5460 347° North 432 497 35,100 60 Climbing FlightAware
10:04AM -17.6040 -44.5640 347° North 429 494 35,100 -120 Level FlightAware
10:04AM -17.5350 -44.5810 347° North 426 490 35,000 -120 Descending FlightAware
10:05AM -17.4720 -44.5970 346° North 434 499 35,000  Level FlightAware
10:05AM -17.3970 -44.6160 346° North 437 503 35,000  Level FlightAware
10:06AM -17.3350 -44.6310 347° North 438 504 35,000  Level FlightAware
10:07AM -17.2570 -44.6500 347° North 438 504 35,000  Level FlightAware
10:07AM -17.1950 -44.6650 347° North 440 506 35,000  Level FlightAware
10:08AM -17.1170 -44.6840 347° North 440 506 35,000  Level FlightAware
10:08AM -17.0490 -44.7010 347° North 441 507 35,000  Level FlightAware
10:09AM -16.9800 -44.7180 347° North 440 506 35,000  Level FlightAware
10:10AM -16.8990 -44.7380 347° North 440 506 35,000  Level FlightAware
10:10AM -16.8390 -44.7520 347° North 438 504 35,000  Level FlightAware
10:11AM -16.7550 -44.7730 347° North 437 503 35,000  Level FlightAware
10:12AM -16.6550 -44.7970 347° North 433 498 35,000  Level FlightAware
10:13AM -16.5660 -44.8200 346° North 430 495 35,000  Level FlightAware
10:13AM -16.5050 -44.8360 346° North 430 495 35,000  Level FlightAware
10:14AM -16.4450 -44.8510 347° North 430 495 35,000  Level FlightAware
10:14AM -16.6120 -44.8080 166° South 35,000  Level FlightAware
10:14AM -16.3460 -44.8730 347° North 433 498 35,000  Level FlightAware
10:15AM -16.2430 -44.8990 346° North 438 504 35,000  Level FlightAware
10:16AM -16.1820 -44.9140 347° North 438 504 35,000  Level FlightAware
10:16AM -16.1220 -44.9300 346° North 438 504 35,000  Level FlightAware
10:17AM -16.0150 -44.9530 348° North 442 509 35,000  Level FlightAware
10:18AM -15.9390 -44.9720 346° North 443 510 35,000  Level FlightAware
10:18AM -15.8770 -44.9880 346° North 443 510 35,000  Level FlightAware
10:19AM -15.8150 -45.0040 346° North 443 510 35,000  Level FlightAware
10:20AM -15.8980 -44.9820 166° South 444 511 35,000  Level FlightAware
10:20AM -15.6230 -45.0490 347° North 443 510 35,000  Level FlightAware
10:21AM -15.5430 -45.0680 347° North 441 507 35,000  Level FlightAware
10:22AM -15.4740 -45.0850 347° North 441 507 35,000  Level FlightAware
10:22AM -15.4130 -45.0990 348° North 441 507 35,000  Level FlightAware
10:23AM -15.3340 -45.1180 347° North 441 507 35,000  Level FlightAware
10:23AM -15.2640 -45.1350 347° North 442 509 35,000  Level FlightAware
10:24AM -15.2030 -45.1500 347° North 444 511 35,000  Level FlightAware
10:25AM -15.1110 -45.1720 347° North 446 513 35,000  Level FlightAware
10:25AM -15.0440 -45.1880 347° North 447 514 35,000  Level FlightAware
10:26AM -14.9700 -45.2060 347° North 448 516 35,000  Level FlightAware
10:26AM -14.8990 -45.2230 347° North 449 517 35,000  Level FlightAware
10:27AM -14.8570 -45.2340 346° North 449 517 35,000  Level FlightAware
10:27AM -14.7740 -45.2540 347° North 450 518 35,000  Level FlightAware
10:28AM -14.6750 -45.2780 347° North 449 517 35,000  Level FlightAware
10:29AM -14.5980 -45.2970 347° North 449 517 35,000  Level FlightAware
10:29AM -14.5250 -45.3150 347° North 450 518 35,000  Level FlightAware
10:30AM -14.4530 -45.3330 346° North 450 518 35,000  Level FlightAware
10:31AM -14.3860 -45.3490 347° North 451 519 35,000  Level FlightAware
10:31AM -14.3040 -45.3690 347° North 452 520 35,000  Level FlightAware
10:32AM -14.2320 -45.3870 346° North 454 522 35,000  Level FlightAware
10:33AM -14.1220 -45.4130 347° North 455 524 35,000  Level FlightAware
10:33AM -14.0590 -45.4280 347° North 455 524 35,000  Level FlightAware
10:34AM -13.9510 -45.4550 346° North 456 525 35,000  Level FlightAware
10:35AM -13.8920 -45.4700 346° North 454 522 35,000  Level FlightAware
10:35AM -13.7990 -45.4930 346° North 453 521 35,000  Level FlightAware
10:36AM -13.7250 -45.5100 347° North 453 521 35,000  Level FlightAware
10:37AM -13.6090 -45.5390 346° North 454 522 35,000  Level FlightAware
10:38AM -13.5250 -45.5590 347° North 454 522 35,000  Level FlightAware
10:38AM -13.4520 -45.5770 347° North 454 522 35,000  Level FlightAware
10:39AM -13.3760 -45.5950 347° North 453 521 35,000  Level FlightAware
10:39AM -13.3070 -45.6120 347° North 453 521 35,000  Level FlightAware
10:40AM -13.2460 -45.6260 347° North 453 521 35,000  Level FlightAware
10:41AM -13.1800 -45.6420 347° North 453 521 35,000  Level FlightAware
10:41AM -13.1180 -45.6560 348° North 453 521 35,000  Level FlightAware
10:42AM -13.0550 -45.6710 347° North 453 521 35,000  Level FlightAware
10:42AM -12.9930 -45.6860 347° North 453 521 35,000  Level FlightAware
10:43AM -12.9300 -45.7010 347° North 453 521 35,000  Level FlightAware
10:44AM -12.8680 -45.7160 347° North 453 521 35,000  Level FlightAware
10:44AM -12.8020 -45.7310 348° North 453 521 35,000  Level FlightAware
10:45AM -12.7430 -45.7450 347° North 453 521 35,000  Level FlightAware
10:45AM -12.6800 -45.7600 347° North 453 521 35,000  Level FlightAware
10:46AM -12.6180 -45.7750 347° North 453 521 35,000  Level FlightAware
10:47AM -12.5540 -45.7900 347° North 453 521 35,000  Level FlightAware
10:47AM -12.4910 -45.8050 347° North 453 521 35,000  Level FlightAware
10:48AM -12.4290 -45.8200 347° North 453 521 35,000  Level FlightAware
10:48AM -12.3640 -45.8350 347° North 453 521 35,000  Level FlightAware
10:51AM -12.1300 -45.8929 346° North  Level Estimated
10:52AM -12.0150 -45.9214 346° North  Level Estimated
10:53AM -11.8999 -45.9498 346° North  Level Estimated
10:54AM -11.7848 -45.9782 346° North  Level Estimated
10:55AM -11.6698 -46.0066 346° North  Level Estimated
10:56AM -11.5547 -46.0349 346° North  Level Estimated
10:57AM -11.4396 -46.0633 346° North  Level Estimated
10:58AM -11.3245 -46.0916 346° North  Level Estimated
10:58AM -11.0300 -46.1590 346° North 454 522 35,000  Level FlightAware
11:00AM -10.8500 -46.2030 346° North 455 524 35,000  Level FlightAware
11:00AM -10.7870 -46.2190 346° North 455 524 35,000  Level FlightAware
11:01AM -10.7230 -46.2350 346° North 455 524 35,000  Level FlightAware
11:01AM -10.6620 -46.2510 346° North 455 524 35,000  Level FlightAware
11:02AM -10.6000 -46.2670 346° North 455 524 35,000  Level FlightAware
11:03AM -10.5370 -46.2830 346° North 455 524 35,000  Level FlightAware
11:03AM -10.4750 -46.2980 347° North 455 524 35,000  Level FlightAware
11:04AM -10.4120 -46.3140 346° North 455 524 35,000  Level FlightAware
11:04AM -10.3460 -46.3310 346° North 455 524 35,000  Level FlightAware
11:05AM -10.2840 -46.3470 346° North 455 524 35,000  Level FlightAware
11:06AM -10.2210 -46.3630 346° North 455 524 35,000  Level FlightAware
11:06AM -10.1570 -46.3790 346° North 455 524 35,000  Level FlightAware
11:07AM -10.0950 -46.3950 346° North 455 524 35,000  Level FlightAware
11:07AM -10.0300 -46.4110 346° North 455 524 35,000  Level FlightAware
11:08AM -9.9660 -46.4270 346° North 455 524 35,000  Level FlightAware
11:09AM -9.7020 -46.4740 350° North 457 526 35,000  Level FlightAware
11:09AM -9.6360 -46.4900 347° North 457 526 35,000  Level FlightAware
11:10AM -9.5760 -46.5050 346° North 457 526 35,000  Level FlightAware
11:10AM -9.5120 -46.5220 345° North 457 526 35,000  Level FlightAware
11:11AM -9.4380 -46.5360 349° North 462 532 35,000  Level FlightAware
11:12AM -9.3530 -46.5570 346° North 463 533 35,000  Level FlightAware
11:12AM -9.2890 -46.5730 346° North 463 533 35,000  Level FlightAware
11:13AM -9.1840 -46.5960 348° North 462 532 35,000  Level FlightAware
11:13AM -9.0860 -46.6190 347° North 462 532 35,000  Level FlightAware
11:14AM -9.0200 -46.6350 347° North 462 532 35,000  Level FlightAware
11:15AM -8.9570 -46.6500 347° North 461 531 35,000  Level FlightAware
11:15AM -8.8930 -46.6660 346° North 461 531 35,000  Level FlightAware
11:16AM -8.8300 -46.6820 346° North 461 531 35,000  Level FlightAware
11:16AM -9.0010 -46.6390 166° South 35,000  Level FlightAware
11:19AM -8.6980 -46.7131 346° North  Level Estimated
11:20AM -8.5829 -46.7412 346° North  Level Estimated
11:21AM -8.4678 -46.7693 346° North  Level Estimated
11:22AM -8.3528 -46.7974 346° North  Level Estimated
11:23AM -8.2377 -46.8255 346° North  Level Estimated
11:24AM -8.1226 -46.8535 346° North  Level Estimated
11:25AM -8.0075 -46.8816 346° North  Level Estimated
11:26AM -7.8924 -46.9096 346° North  Level Estimated
11:27AM -7.7774 -46.9376 346° North  Level Estimated
11:28AM -7.6623 -46.9656 346° North  Level Estimated
11:29AM -7.5472 -46.9935 346° North  Level Estimated
11:30AM -7.4321 -47.0215 346° North  Level Estimated
11:31AM -7.3170 -47.0494 346° North  Level Estimated
11:32AM -7.2019 -47.0774 346° North  Level Estimated
11:33AM -7.0868 -47.1053 346° North  Level Estimated
11:34AM -6.9717 -47.1332 346° North  Level Estimated
11:35AM -6.8566 -47.1611 346° North  Level Estimated
11:36AM -6.7415 -47.1889 346° North  Level Estimated
11:37AM -6.6264 -47.2168 346° North  Level Estimated
11:38AM -6.5113 -47.2447 346° North  Level Estimated
11:39AM -6.3962 -47.2725 346° North  Level Estimated
11:40AM -6.2811 -47.3003 346° North  Level Estimated
11:41AM -6.1660 -47.3281 346° North  Level Estimated
11:42AM -6.0509 -47.3559 346° North  Level Estimated
11:43AM -5.9358 -47.3837 347° North  Level Estimated
11:44AM -5.8207 -47.4115 347° North  Level Estimated
11:45AM -5.7055 -47.4392 347° North  Level Estimated
11:46AM -5.5904 -47.4670 347° North  Level Estimated
11:47AM -5.4753 -47.4947 347° North  Level Estimated
11:48AM -5.3602 -47.5224 347° North  Level Estimated
11:49AM -5.2451 -47.5502 347° North  Level Estimated
11:50AM -5.1299 -47.5779 347° North  Level Estimated
11:50AM -4.5110 -47.7030 347° North 464 534 37,000  Level FlightAware
11:50AM -4.4440 -47.7210 345° North 464 534 37,000  Level FlightAware
11:51AM -4.3440 -47.7450 347° North 464 534 37,000  Level FlightAware
11:52AM -4.2650 -47.7640 347° North 464 534 37,000  Level FlightAware
11:53AM -4.1850 -47.7840 346° North 464 534 37,000  Level FlightAware
11:53AM -4.1010 -47.8050 346° North 464 534 37,000  Level FlightAware
11:54AM -4.0070 -47.8280 346° North 464 534 37,000  Level FlightAware
11:55AM -3.8800 -47.8600 346° North 465 535 37,000 -420 Level FlightAware
11:55AM -3.8100 -47.8780 346° North 466 536 36,500 -900 Descending FlightAware
11:56AM -3.7410 -47.8950 346° North 458 527 36,000 -1,080 Descending FlightAware
11:56AM -3.6660 -47.9130 347° North 463 533 35,300 -1,020 Descending FlightAware
11:57AM -3.5800 -47.9350 346° North 458 527 34,500 -900 Descending FlightAware
11:58AM -3.5320 -47.9470 346° North 453 521 34,000 -660 Descending FlightAware
11:59AM -3.4570 -47.9650 347° North 454 522 33,800 -180 Descending FlightAware
11:59AM -3.3940 -47.9810 346° North 454 522 33,800 -1,500 Level FlightAware
12:00PM -3.3070 -48.0020 346° North 455 524 32,000 -2,280 Descending FlightAware
12:00PM -3.2370 -48.0200 346° North 451 519 31,300 -900 Descending FlightAware
12:01PM -3.1670 -48.0370 346° North 450 518 31,000 -1,440 Descending FlightAware
12:01PM -3.0910 -48.0560 346° North 448 516 29,600 -2,400 Descending FlightAware
12:02PM -3.0240 -48.0730 346° North 447 514 28,300 -2,220 Descending FlightAware
12:03PM -2.9490 -48.0910 347° North 439 505 27,100 -2,160 Descending FlightAware
12:03PM -2.8730 -48.1100 346° North 431 496 25,700 -2,100 Descending FlightAware
12:04PM -2.8080 -48.1260 346° North 423 487 24,600 -2,040 Descending FlightAware
12:04PM -2.7320 -48.1450 346° North 417 480 23,200 -1,980 Descending FlightAware
12:05PM -2.6600 -48.1630 346° North 411 473 21,900 -1,920 Descending FlightAware
12:06PM -2.5960 -48.1780 347° North 407 468 20,800 -1,980 Descending FlightAware
12:06PM -2.5280 -48.1950 346° North 399 459 19,600 -1,920 Descending FlightAware
12:07PM -2.4620 -48.2120 346° North 393 452 18,600 -1,920 Descending FlightAware
12:07PM -2.4040 -48.2320 341° North 393 452 17,400 -2,160 Descending FlightAware
12:08PM -2.3480 -48.2550 338° Northwest 384 442 16,200 -1,860 Descending FlightAware
12:09PM -2.2930 -48.2780 337° Northwest 379 436 15,200 -1,740 Descending FlightAware
12:09PM -2.2310 -48.3030 338° Northwest 371 427 14,100 -1,860 Descending FlightAware
12:10PM -2.1750 -48.3260 338° Northwest 361 415 13,100 -1,620 Descending FlightAware
12:10PM -2.1260 -48.3460 338° Northwest 352 405 12,300 -1,500 Descending FlightAware
12:11PM -2.0800 -48.3650 338° Northwest 343 395 11,400 -1,620 Descending FlightAware
12:12PM -2.0260 -48.3870 338° Northwest 330 380 10,500 -1,200 Descending FlightAware
12:12PM -1.9720 -48.4090 338° Northwest 312 359 10,000 -960 Descending FlightAware
12:12PM -1.9490 -48.4190 337° Northwest 307 353 9,700 -1,260 Descending FlightAware
12:13PM -1.9220 -48.4290 340° North 305 351 9,200 -1,440 Descending FlightAware
12:13PM -1.8930 -48.4410 338° Northwest 303 349 8,700 -1,500 Descending FlightAware
12:13PM -1.8660 -48.4520 338° Northwest 300 345 8,200 -1,260 Descending FlightAware
12:14PM -1.8390 -48.4630 338° Northwest 299 344 7,800 -1,320 Descending FlightAware
12:14PM -1.8110 -48.4750 337° Northwest 296 341 7,200 -1,500 Descending FlightAware
12:15PM -1.7780 -48.4880 339° North 293 337 6,700 -1,320 Descending FlightAware
12:15PM -1.7550 -48.4970 339° North 291 335 6,300 -1,380 Descending FlightAware
12:15PM -1.7300 -48.5080 336° Northwest 289 333 5,800 -1,440 Descending FlightAware
12:16PM -1.7060 -48.5180 337° Northwest 288 331 5,300 -1,500 Descending FlightAware
12:16PM -1.6820 -48.5270 339° North 286 329 4,800 -1,560 Descending FlightAware
12:16PM -1.6540 -48.5390 337° Northwest 279 321 4,300 -960 Descending FlightAware
12:17PM -1.6220 -48.5520 338° Northwest 259 298 4,000 -420 Descending FlightAware
12:17PM -1.6010 -48.5610 337° Northwest 240 276 4,000 -180 Level FlightAware
12:17PM -1.5770 -48.5710 337° Northwest 231 266 3,900 -420 Descending FlightAware
12:18PM -1.5570 -48.5800 336° Northwest 223 257 3,700 -600 Descending FlightAware
12:18PM -1.5470 -48.5850 333° Northwest 217 250 3,600 -900 Descending FlightAware
12:18PM -1.5240 -48.5950 337° Northwest 206 237 3,200 -1,140 Descending FlightAware
12:19PM -1.5130 -48.5990 340° North 203 234 2,900 -1,200 Descending FlightAware
12:19PM -1.4950 -48.5910 24° Northeast 190 219 2,500 -1,200 Descending FlightAware
12:19PM -1.4820 -48.5790 43° Northeast 185 213 2,100 -660 Descending FlightAware
12:20PM -1.4670 -48.5650 43° Northeast 159 183 2,000 -300 Descending FlightAware
12:20PM -1.4560 -48.5540 45° Northeast 149 171 1,900 -540 Descending FlightAware
12:21PM -1.4460 -48.5440 45° Northeast 140 161 1,600 -780 Descending FlightAware
12:21PM -1.4390 -48.5360 49° Northeast 142 163 1,400 -900 Descending FlightAware
12:21PM -1.4280 -48.5250 45° Northeast 139 160 1,100 -720 Descending FlightAware
12:22PM -1.4170 -48.5140 45° Northeast 137 158 900 -600 Descending FlightAware
12:22PM -1.4080 -48.5050 45° Northeast 140 161 600 -720 Descending FlightAware
12:22PM -1.3980 -48.4950 45° Northeast 140 161 400 -780 Descending FlightAware
12:23PM -1.3880 -48.4850 45° Northeast 139 160 100 -900 Descending FlightAware
12:23PM -1.3820 -48.4790 45° Northeast 110 127 -420 Descending FlightAware